sensor_id;sensor_type;location;lat;lon;timestamp;temperature;humidity
15217;DHT22;7711;46.634;14.318;2022-12-15T00:01:04;-5.60;99.90
15217;DHT22;7711;46.634;14.318;2022-12-15T00:03:50;-5.70;99.90
15217;DHT22;7711;46.634;14.318;2022-12-15T00:06:38;-5.70;1.00
15217;DHT22;7711;46.634;14.318;2022-12-15T00:09:22;-5.60;1.00
15217;DHT22;7711;46.634;14.318;2022-12-15T00:12:09;-5.60;99.90
15217;DHT22;7711;46.634;14.318;2022-12-15T00:14:55;-5.60;99.90
15217;DHT22;7711;46.634;14.318;2022-12-15T00:17:42;-5.50;1.00
15217;DHT22;7711;46.634;14.318;2022-12-15T00:20:28;-5.50;99.90
15217;DHT22;7711;46.634;14.318;2022-12-15T00:23:19;-5.50;78.30
15217;DHT22;7711;46.634;14.318;2022-12-15T00:26:05;-5.50;1.00
15217;DHT22;7711;46.634;14.318;2022-12-15T00:28:53;-5.50;1.00
15217;DHT22;7711;46.634;14.318;2022-12-15T00:31:44;-5.50;1.00
15217;DHT22;7711;46.634;14.318;2022-12-15T00:34:29;-5.60;99.90
15217;DHT22;7711;46.634;14.318;2022-12-15T00:37:14;-5.70;42.90
15217;DHT22;7711;46.634;14.318;2022-12-15T00:40:01;-5.70;99.90
15217;DHT22;7711;46.634;14.318;2022-12-15T00:42:30;-5.70;90.20
15217;DHT22;7711;46.634;14.318;2022-12-15T00:44:57;-5.70;1.00
15217;DHT22;7711;46.634;14.318;2022-12-15T00:47:26;-5.80;1.00
15217;DHT22;7711;46.634;14.318;2022-12-15T00:49:54;-5.80;1.00
15217;DHT22;7711;46.634;14.318;2022-12-15T00:52:41;-5.80;99.90
15217;DHT22;7711;46.634;14.318;2022-12-15T00:55:31;-5.80;99.90
15217;DHT22;7711;46.634;14.318;2022-12-15T00:58:17;-5.80;73.40
15217;DHT22;7711;46.634;14.318;2022-12-15T01:01:06;-5.80;1.00
15217;DHT22;7711;46.634;14.318;2022-12-15T01:03:52;-5.80;99.90
15217;DHT22;7711;46.634;14.318;2022-12-15T01:06:37;-5.80;1.00
15217;DHT22;7711;46.634;14.318;2022-12-15T01:09:28;-5.90;1.00
15217;DHT22;7711;46.634;14.318;2022-12-15T01:12:14;-5.90;1.00
15217;DHT22;7711;46.634;14.318;2022-12-15T01:15:02;-5.80;99.90
15217;DHT22;7711;46.634;14.318;2022-12-15T01:17:52;-5.80;1.00
15217;DHT22;7711;46.634;14.318;2022-12-15T01:20:41;-5.90;1.00
15217;DHT22;7711;46.634;14.318;2022-12-15T01:23:11;-5.90;1.00
15217;DHT22;7711;46.634;14.318;2022-12-15T01:25:49;-5.80;99.90
15217;DHT22;7711;46.634;14.318;2022-12-15T01:28:23;-5.80;1.00
15217;DHT22;7711;46.634;14.318;2022-12-15T01:30:52;-5.70;1.00
15217;DHT22;7711;46.634;14.318;2022-12-15T01:33:19;-5.60;1.00
15217;DHT22;7711;46.634;14.318;2022-12-15T01:35:59;-5.60;1.00
15217;DHT22;7711;46.634;14.318;2022-12-15T01:38:30;-5.60;1.00
15217;DHT22;7711;46.634;14.318;2022-12-15T01:41:01;-5.60;99.90
15217;DHT22;7711;46.634;14.318;2022-12-15T01:43:32;-5.60;1.00
15217;DHT22;7711;46.634;14.318;2022-12-15T01:46:04;-5.70;1.00
15217;DHT22;7711;46.634;14.318;2022-12-15T01:48:40;-5.70;47.00
15217;DHT22;7711;46.634;14.318;2022-12-15T01:51:15;-5.70;1.00
15217;DHT22;7711;46.634;14.318;2022-12-15T01:53:50;-5.70;88.20
15217;DHT22;7711;46.634;14.318;2022-12-15T01:56:27;-5.70;99.90
15217;DHT22;7711;46.634;14.318;2022-12-15T01:59:00;-5.70;1.00
15217;DHT22;7711;46.634;14.318;2022-12-15T02:01:30;-5.80;1.00
15217;DHT22;7711;46.634;14.318;2022-12-15T02:04:08;-5.80;99.90
15217;DHT22;7711;46.634;14.318;2022-12-15T02:06:37;-5.80;1.00
15217;DHT22;7711;46.634;14.318;2022-12-15T02:09:07;-5.80;1.00
15217;DHT22;7711;46.634;14.318;2022-12-15T02:11:58;-5.80;1.00
15217;DHT22;7711;46.634;14.318;2022-12-15T02:14:52;-5.90;1.00
15217;DHT22;7711;46.634;14.318;2022-12-15T02:17:32;-5.90;1.00
15217;DHT22;7711;46.634;14.318;2022-12-15T02:20:31;-5.90;1.00
15217;DHT22;7711;46.634;14.318;2022-12-15T02:29:30;-6.10;99.90
15217;DHT22;7711;46.634;14.318;2022-12-15T02:32:09;-6.10;1.00
15217;DHT22;7711;46.634;14.318;2022-12-15T02:34:46;-6.10;99.90
15217;DHT22;7711;46.634;14.318;2022-12-15T02:37:25;-6.10;1.00
15217;DHT22;7711;46.634;14.318;2022-12-15T02:39:59;-6.10;99.90
15217;DHT22;7711;46.634;14.318;2022-12-15T02:42:31;-6.10;1.00
15217;DHT22;7711;46.634;14.318;2022-12-15T02:45:05;-6.10;1.00
15217;DHT22;7711;46.634;14.318;2022-12-15T02:47:42;-6.00;99.90
15217;DHT22;7711;46.634;14.318;2022-12-15T02:50:32;-6.00;99.90
15217;DHT22;7711;46.634;14.318;2022-12-15T02:53:13;-6.00;99.90
15217;DHT22;7711;46.634;14.318;2022-12-15T02:55:52;-6.00;1.00
15217;DHT22;7711;46.634;14.318;2022-12-15T02:58:29;-6.00;58.40
15217;DHT22;7711;46.634;14.318;2022-12-15T03:01:01;-6.00;1.00
15217;DHT22;7711;46.634;14.318;2022-12-15T03:03:33;-6.00;1.00
15217;DHT22;7711;46.634;14.318;2022-12-15T03:06:05;-6.00;1.00
15217;DHT22;7711;46.634;14.318;2022-12-15T03:08:35;-6.10;99.90
15217;DHT22;7711;46.634;14.318;2022-12-15T03:11:09;-6.10;1.00
15217;DHT22;7711;46.634;14.318;2022-12-15T03:13:39;-6.10;99.90
15217;DHT22;7711;46.634;14.318;2022-12-15T03:16:08;-6.20;1.00
15217;DHT22;7711;46.634;14.318;2022-12-15T03:18:37;-6.20;99.90
15217;DHT22;7711;46.634;14.318;2022-12-15T03:21:04;-6.20;98.60
15217;DHT22;7711;46.634;14.318;2022-12-15T03:23:39;-6.20;99.90
15217;DHT22;7711;46.634;14.318;2022-12-15T03:26:13;-6.20;99.90
15217;DHT22;7711;46.634;14.318;2022-12-15T03:28:42;-6.20;1.00
15217;DHT22;7711;46.634;14.318;2022-12-15T03:31:14;-6.30;1.00
15217;DHT22;7711;46.634;14.318;2022-12-15T03:33:46;-6.30;99.90
15217;DHT22;7711;46.634;14.318;2022-12-15T03:36:16;-6.30;1.00
15217;DHT22;7711;46.634;14.318;2022-12-15T03:38:43;-6.30;99.90
15217;DHT22;7711;46.634;14.318;2022-12-15T03:41:16;-6.20;99.90
15217;DHT22;7711;46.634;14.318;2022-12-15T03:43:49;-6.20;99.90
15217;DHT22;7711;46.634;14.318;2022-12-15T03:46:21;-6.10;1.00
15217;DHT22;7711;46.634;14.318;2022-12-15T03:48:55;-6.20;99.90
15217;DHT22;7711;46.634;14.318;2022-12-15T03:51:26;-6.20;1.00
15217;DHT22;7711;46.634;14.318;2022-12-15T03:53:55;-6.20;1.00
15217;DHT22;7711;46.634;14.318;2022-12-15T03:56:24;-6.30;99.90
15217;DHT22;7711;46.634;14.318;2022-12-15T03:58:54;-6.20;99.90
15217;DHT22;7711;46.634;14.318;2022-12-15T04:01:29;-6.20;81.70
15217;DHT22;7711;46.634;14.318;2022-12-15T04:04:01;-6.20;1.00
15217;DHT22;7711;46.634;14.318;2022-12-15T04:06:31;-6.20;1.00
15217;DHT22;7711;46.634;14.318;2022-12-15T04:09:03;-6.20;1.00
15217;DHT22;7711;46.634;14.318;2022-12-15T04:11:32;-6.30;1.00
15217;DHT22;7711;46.634;14.318;2022-12-15T04:14:02;-6.30;78.50
15217;DHT22;7711;46.634;14.318;2022-12-15T04:16:33;-6.30;27.50
15217;DHT22;7711;46.634;14.318;2022-12-15T04:19:10;-6.40;1.00
15217;DHT22;7711;46.634;14.318;2022-12-15T04:22:13;-6.40;1.00
15217;DHT22;7711;46.634;14.318;2022-12-15T04:24:42;-6.40;1.00
15217;DHT22;7711;46.634;14.318;2022-12-15T04:27:29;-6.50;99.90
15217;DHT22;7711;46.634;14.318;2022-12-15T04:30:18;-6.40;99.90
15217;DHT22;7711;46.634;14.318;2022-12-15T04:33:08;-6.40;99.90
15217;DHT22;7711;46.634;14.318;2022-12-15T04:36:01;-6.50;1.00
15217;DHT22;7711;46.634;14.318;2022-12-15T04:38:51;-6.60;1.00
15217;DHT22;7711;46.634;14.318;2022-12-15T04:41:39;-6.50;1.00
15217;DHT22;7711;46.634;14.318;2022-12-15T04:44:27;-6.50;1.00
15217;DHT22;7711;46.634;14.318;2022-12-15T04:47:13;-6.50;1.00
15217;DHT22;7711;46.634;14.318;2022-12-15T04:50:03;-6.50;99.90
15217;DHT22;7711;46.634;14.318;2022-12-15T04:52:50;-6.40;1.00
15217;DHT22;7711;46.634;14.318;2022-12-15T04:55:36;-6.40;1.00
15217;DHT22;7711;46.634;14.318;2022-12-15T04:58:24;-6.40;1.00
15217;DHT22;7711;46.634;14.318;2022-12-15T05:01:10;-6.50;99.90
15217;DHT22;7711;46.634;14.318;2022-12-15T05:04:00;-6.50;1.00
15217;DHT22;7711;46.634;14.318;2022-12-15T05:06:45;-6.60;99.90
15217;DHT22;7711;46.634;14.318;2022-12-15T05:09:35;-6.60;1.00
15217;DHT22;7711;46.634;14.318;2022-12-15T05:12:24;-6.60;1.00
15217;DHT22;7711;46.634;14.318;2022-12-15T05:15:11;-6.60;1.00
15217;DHT22;7711;46.634;14.318;2022-12-15T05:17:59;-6.60;99.90
15217;DHT22;7711;46.634;14.318;2022-12-15T05:20:45;-6.70;1.00
15217;DHT22;7711;46.634;14.318;2022-12-15T05:23:32;-6.70;1.00
15217;DHT22;7711;46.634;14.318;2022-12-15T05:26:18;-6.80;99.90
15217;DHT22;7711;46.634;14.318;2022-12-15T05:29:08;-6.70;99.90
15217;DHT22;7711;46.634;14.318;2022-12-15T05:31:58;-6.70;1.00
15217;DHT22;7711;46.634;14.318;2022-12-15T05:34:28;-6.70;99.90
15217;DHT22;7711;46.634;14.318;2022-12-15T05:36:59;-6.70;1.00
15217;DHT22;7711;46.634;14.318;2022-12-15T05:39:27;-6.80;1.00
15217;DHT22;7711;46.634;14.318;2022-12-15T05:41:59;-6.80;1.00
15217;DHT22;7711;46.634;14.318;2022-12-15T05:44:27;-6.80;1.00
15217;DHT22;7711;46.634;14.318;2022-12-15T05:46:58;-6.80;99.90
15217;DHT22;7711;46.634;14.318;2022-12-15T05:49:28;-6.80;1.00
15217;DHT22;7711;46.634;14.318;2022-12-15T05:52:01;-6.90;99.90
15217;DHT22;7711;46.634;14.318;2022-12-15T05:54:30;-6.90;1.00
15217;DHT22;7711;46.634;14.318;2022-12-15T05:57:02;-6.90;1.00
15217;DHT22;7711;46.634;14.318;2022-12-15T05:59:32;-6.90;99.90
15217;DHT22;7711;46.634;14.318;2022-12-15T06:02:01;-7.00;99.90
15217;DHT22;7711;46.634;14.318;2022-12-15T06:04:28;-7.00;1.00
15217;DHT22;7711;46.634;14.318;2022-12-15T06:06:57;-6.90;1.00
15217;DHT22;7711;46.634;14.318;2022-12-15T06:09:26;-7.00;1.00
15217;DHT22;7711;46.634;14.318;2022-12-15T06:12:00;-7.10;99.90
15217;DHT22;7711;46.634;14.318;2022-12-15T06:14:29;-7.00;1.00
15217;DHT22;7711;46.634;14.318;2022-12-15T06:16:59;-7.00;1.00
15217;DHT22;7711;46.634;14.318;2022-12-15T06:19:28;-6.90;1.00
15217;DHT22;7711;46.634;14.318;2022-12-15T06:21:55;-6.70;99.90
15217;DHT22;7711;46.634;14.318;2022-12-15T06:24:24;-6.70;99.90
15217;DHT22;7711;46.634;14.318;2022-12-15T06:26:53;-6.70;30.20
15217;DHT22;7711;46.634;14.318;2022-12-15T06:29:22;-6.70;32.20
15217;DHT22;7711;46.634;14.318;2022-12-15T06:31:51;-6.60;82.60
15217;DHT22;7711;46.634;14.318;2022-12-15T06:34:20;-6.60;1.00
15217;DHT22;7711;46.634;14.318;2022-12-15T06:36:48;-6.60;1.00
15217;DHT22;7711;46.634;14.318;2022-12-15T06:39:18;-6.50;99.90
15217;DHT22;7711;46.634;14.318;2022-12-15T06:41:46;-6.50;1.00
15217;DHT22;7711;46.634;14.318;2022-12-15T06:44:16;-6.50;99.90
15217;DHT22;7711;46.634;14.318;2022-12-15T06:46:44;-6.60;1.00
15217;DHT22;7711;46.634;14.318;2022-12-15T06:49:14;-6.60;1.00
15217;DHT22;7711;46.634;14.318;2022-12-15T06:51:43;-6.60;10.90
15217;DHT22;7711;46.634;14.318;2022-12-15T06:54:13;-6.70;99.90
15217;DHT22;7711;46.634;14.318;2022-12-15T06:56:41;-6.70;1.00
15217;DHT22;7711;46.634;14.318;2022-12-15T06:59:13;-6.70;1.00
15217;DHT22;7711;46.634;14.318;2022-12-15T07:01:44;-6.90;1.00
15217;DHT22;7711;46.634;14.318;2022-12-15T07:04:11;-6.90;1.00
15217;DHT22;7711;46.634;14.318;2022-12-15T07:06:43;-6.90;1.00
15217;DHT22;7711;46.634;14.318;2022-12-15T07:09:12;-6.80;99.90
15217;DHT22;7711;46.634;14.318;2022-12-15T07:11:43;-6.70;99.90
15217;DHT22;7711;46.634;14.318;2022-12-15T07:14:16;-6.70;99.90
15217;DHT22;7711;46.634;14.318;2022-12-15T07:16:47;-6.60;1.00
15217;DHT22;7711;46.634;14.318;2022-12-15T07:19:15;-6.70;76.80
15217;DHT22;7711;46.634;14.318;2022-12-15T07:21:43;-6.70;1.00
15217;DHT22;7711;46.634;14.318;2022-12-15T07:24:13;-6.70;1.00
15217;DHT22;7711;46.634;14.318;2022-12-15T07:26:45;-6.70;99.90
15217;DHT22;7711;46.634;14.318;2022-12-15T07:29:14;-6.60;1.00
15217;DHT22;7711;46.634;14.318;2022-12-15T07:31:45;-6.60;1.00
15217;DHT22;7711;46.634;14.318;2022-12-15T07:34:15;-6.50;1.00
15217;DHT22;7711;46.634;14.318;2022-12-15T07:36:47;-6.40;1.00
15217;DHT22;7711;46.634;14.318;2022-12-15T07:39:16;-6.40;99.90
15217;DHT22;7711;46.634;14.318;2022-12-15T07:41:48;-6.40;1.00
15217;DHT22;7711;46.634;14.318;2022-12-15T07:44:15;-6.30;99.90
15217;DHT22;7711;46.634;14.318;2022-12-15T07:46:46;-6.20;1.00
15217;DHT22;7711;46.634;14.318;2022-12-15T07:49:16;-6.10;27.70
15217;DHT22;7711;46.634;14.318;2022-12-15T07:51:48;-6.20;1.00
15217;DHT22;7711;46.634;14.318;2022-12-15T07:54:15;-6.10;1.00
15217;DHT22;7711;46.634;14.318;2022-12-15T07:56:48;-6.10;1.00
15217;DHT22;7711;46.634;14.318;2022-12-15T07:59:17;-6.10;1.00
15217;DHT22;7711;46.634;14.318;2022-12-15T08:01:48;-6.00;99.90
15217;DHT22;7711;46.634;14.318;2022-12-15T08:04:15;-6.00;1.00
15217;DHT22;7711;46.634;14.318;2022-12-15T08:06:43;-5.90;1.00
15217;DHT22;7711;46.634;14.318;2022-12-15T08:09:15;-5.80;1.00
15217;DHT22;7711;46.634;14.318;2022-12-15T08:11:44;-5.70;99.90
15217;DHT22;7711;46.634;14.318;2022-12-15T08:14:11;-5.70;99.90
15217;DHT22;7711;46.634;14.318;2022-12-15T08:16:41;-5.60;99.90
15217;DHT22;7711;46.634;14.318;2022-12-15T08:19:16;-5.50;99.90
15217;DHT22;7711;46.634;14.318;2022-12-15T08:21:44;-5.40;99.90
15217;DHT22;7711;46.634;14.318;2022-12-15T08:24:12;-5.30;1.50
15217;DHT22;7711;46.634;14.318;2022-12-15T08:26:42;-5.20;1.00
15217;DHT22;7711;46.634;14.318;2022-12-15T08:29:12;-5.10;1.00
15217;DHT22;7711;46.634;14.318;2022-12-15T08:31:45;-4.90;1.00
15217;DHT22;7711;46.634;14.318;2022-12-15T08:34:13;-4.80;1.00
15217;DHT22;7711;46.634;14.318;2022-12-15T08:36:43;-4.60;99.90
15217;DHT22;7711;46.634;14.318;2022-12-15T08:39:13;-4.60;1.00
15217;DHT22;7711;46.634;14.318;2022-12-15T08:41:45;-4.60;1.00
15217;DHT22;7711;46.634;14.318;2022-12-15T08:44:13;-4.50;1.00
15217;DHT22;7711;46.634;14.318;2022-12-15T08:46:43;-4.50;11.70
15217;DHT22;7711;46.634;14.318;2022-12-15T08:49:15;-4.60;1.00
15217;DHT22;7711;46.634;14.318;2022-12-15T08:51:50;-4.60;1.00
15217;DHT22;7711;46.634;14.318;2022-12-15T08:54:22;-4.50;59.40
15217;DHT22;7711;46.634;14.318;2022-12-15T08:56:50;-4.40;1.00
15217;DHT22;7711;46.634;14.318;2022-12-15T08:59:19;-4.30;1.00
15217;DHT22;7711;46.634;14.318;2022-12-15T09:01:47;-4.40;1.00
15217;DHT22;7711;46.634;14.318;2022-12-15T09:04:18;-4.30;1.00
15217;DHT22;7711;46.634;14.318;2022-12-15T09:06:49;-4.20;1.00
15217;DHT22;7711;46.634;14.318;2022-12-15T09:09:22;-4.20;1.00
15217;DHT22;7711;46.634;14.318;2022-12-15T09:11:50;-4.10;1.00
15217;DHT22;7711;46.634;14.318;2022-12-15T09:14:23;-4.30;1.00
15217;DHT22;7711;46.634;14.318;2022-12-15T09:16:55;-4.20;1.00
15217;DHT22;7711;46.634;14.318;2022-12-15T09:19:27;-4.30;1.00
15217;DHT22;7711;46.634;14.318;2022-12-15T09:21:57;-4.20;1.00
15217;DHT22;7711;46.634;14.318;2022-12-15T09:24:33;-4.10;16.90
15217;DHT22;7711;46.634;14.318;2022-12-15T09:27:01;-4.00;99.90
15217;DHT22;7711;46.634;14.318;2022-12-15T09:29:29;-3.90;99.90
15217;DHT22;7711;46.634;14.318;2022-12-15T09:31:57;-3.80;1.00
15217;DHT22;7711;46.634;14.318;2022-12-15T09:34:32;-3.70;1.00
15217;DHT22;7711;46.634;14.318;2022-12-15T09:37:02;-3.50;1.00
15217;DHT22;7711;46.634;14.318;2022-12-15T09:39:34;-3.60;1.00
15217;DHT22;7711;46.634;14.318;2022-12-15T09:42:05;-3.60;1.00
15217;DHT22;7711;46.634;14.318;2022-12-15T09:44:36;-3.40;1.00
15217;DHT22;7711;46.634;14.318;2022-12-15T09:47:16;-3.20;1.00
15217;DHT22;7711;46.634;14.318;2022-12-15T09:49:53;-3.10;1.00
15217;DHT22;7711;46.634;14.318;2022-12-15T09:52:26;-3.10;99.90
15217;DHT22;7711;46.634;14.318;2022-12-15T09:54:54;-3.10;99.90
15217;DHT22;7711;46.634;14.318;2022-12-15T09:57:34;-3.20;99.90
15217;DHT22;7711;46.634;14.318;2022-12-15T10:00:14;-2.90;99.90
15217;DHT22;7711;46.634;14.318;2022-12-15T10:03:09;-2.80;99.90
15217;DHT22;7711;46.634;14.318;2022-12-15T10:05:51;-2.70;99.90
15217;DHT22;7711;46.634;14.318;2022-12-15T10:08:32;-2.70;1.00
15217;DHT22;7711;46.634;14.318;2022-12-15T10:11:04;-2.70;1.00
15217;DHT22;7711;46.634;14.318;2022-12-15T10:13:39;-2.60;1.00
15217;DHT22;7711;46.634;14.318;2022-12-15T10:16:20;-2.40;1.00
15217;DHT22;7711;46.634;14.318;2022-12-15T10:18:58;-2.20;1.00
15217;DHT22;7711;46.634;14.318;2022-12-15T10:21:29;-2.10;1.00
15217;DHT22;7711;46.634;14.318;2022-12-15T10:24:06;-2.00;1.00
15217;DHT22;7711;46.634;14.318;2022-12-15T10:26:36;-1.90;1.00
15217;DHT22;7711;46.634;14.318;2022-12-15T10:29:24;-1.80;1.00
15217;DHT22;7711;46.634;14.318;2022-12-15T10:32:08;-2.00;1.00
15217;DHT22;7711;46.634;14.318;2022-12-15T10:34:39;-2.00;1.00
15217;DHT22;7711;46.634;14.318;2022-12-15T10:37:13;-1.90;1.00
15217;DHT22;7711;46.634;14.318;2022-12-15T10:39:43;-2.00;99.90
15217;DHT22;7711;46.634;14.318;2022-12-15T10:42:18;-1.90;99.90
15217;DHT22;7711;46.634;14.318;2022-12-15T10:44:53;-1.70;99.90
15217;DHT22;7711;46.634;14.318;2022-12-15T10:47:24;-1.50;99.90
15217;DHT22;7711;46.634;14.318;2022-12-15T10:50:15;-1.30;99.90
15217;DHT22;7711;46.634;14.318;2022-12-15T10:52:58;-1.10;99.90
15217;DHT22;7711;46.634;14.318;2022-12-15T10:55:41;-1.10;99.90
15217;DHT22;7711;46.634;14.318;2022-12-15T10:58:19;-1.00;99.90
15217;DHT22;7711;46.634;14.318;2022-12-15T11:01:03;-0.90;99.90
15217;DHT22;7711;46.634;14.318;2022-12-15T11:03:37;-0.70;99.90
15217;DHT22;7711;46.634;14.318;2022-12-15T11:06:13;-0.70;99.90
15217;DHT22;7711;46.634;14.318;2022-12-15T11:08:44;-0.50;99.90
15217;DHT22;7711;46.634;14.318;2022-12-15T11:11:30;-0.60;24.80
15217;DHT22;7711;46.634;14.318;2022-12-15T11:14:20;-0.80;14.20
15217;DHT22;7711;46.634;14.318;2022-12-15T11:16:58;-0.70;20.80
15217;DHT22;7711;46.634;14.318;2022-12-15T11:19:32;-0.80;3.80
15217;DHT22;7711;46.634;14.318;2022-12-15T11:22:08;-0.50;1.00
15217;DHT22;7711;46.634;14.318;2022-12-15T11:24:44;-0.30;1.00
15217;DHT22;7711;46.634;14.318;2022-12-15T11:27:20;-0.30;1.00
15217;DHT22;7711;46.634;14.318;2022-12-15T11:29:59;-0.30;1.00
15217;DHT22;7711;46.634;14.318;2022-12-15T11:32:32;-0.30;1.00
15217;DHT22;7711;46.634;14.318;2022-12-15T11:35:05;-0.20;1.00
15217;DHT22;7711;46.634;14.318;2022-12-15T11:37:38;0.10;1.00
15217;DHT22;7711;46.634;14.318;2022-12-15T11:43:24;0.10;1.00
15217;DHT22;7711;46.634;14.318;2022-12-15T11:46:04;-0.20;1.00
15217;DHT22;7711;46.634;14.318;2022-12-15T11:48:46;0.10;1.00
15217;DHT22;7711;46.634;14.318;2022-12-15T11:51:24;0.40;1.00
15217;DHT22;7711;46.634;14.318;2022-12-15T11:54:08;0.30;1.00
15217;DHT22;7711;46.634;14.318;2022-12-15T11:56:45;0.20;1.00
15217;DHT22;7711;46.634;14.318;2022-12-15T11:59:37;0.40;1.00
15217;DHT22;7711;46.634;14.318;2022-12-15T12:05:26;0.70;1.00
15217;DHT22;7711;46.634;14.318;2022-12-15T12:08:09;0.80;1.00
15217;DHT22;7711;46.634;14.318;2022-12-15T12:10:47;0.70;1.00
15217;DHT22;7711;46.634;14.318;2022-12-15T12:13:22;0.90;1.00
15217;DHT22;7711;46.634;14.318;2022-12-15T12:16:02;1.20;1.00
15217;DHT22;7711;46.634;14.318;2022-12-15T12:18:39;1.20;1.00
15217;DHT22;7711;46.634;14.318;2022-12-15T12:21:13;1.00;1.00
15217;DHT22;7711;46.634;14.318;2022-12-15T12:23:46;0.90;1.00
15217;DHT22;7711;46.634;14.318;2022-12-15T12:26:21;1.00;1.00
15217;DHT22;7711;46.634;14.318;2022-12-15T12:28:54;0.70;1.00
15217;DHT22;7711;46.634;14.318;2022-12-15T12:31:33;1.10;1.00
15217;DHT22;7711;46.634;14.318;2022-12-15T12:34:11;1.20;1.00
15217;DHT22;7711;46.634;14.318;2022-12-15T12:36:43;1.70;1.00
15217;DHT22;7711;46.634;14.318;2022-12-15T12:39:25;2.00;1.00
15217;DHT22;7711;46.634;14.318;2022-12-15T12:42:01;1.80;1.00
15217;DHT22;7711;46.634;14.318;2022-12-15T12:44:35;1.10;1.00
15217;DHT22;7711;46.634;14.318;2022-12-15T12:47:11;0.70;1.00
15217;DHT22;7711;46.634;14.318;2022-12-15T12:49:46;0.40;1.00
15217;DHT22;7711;46.634;14.318;2022-12-15T12:52:20;0.50;1.00
15217;DHT22;7711;46.634;14.318;2022-12-15T12:54:58;0.40;1.00
15217;DHT22;7711;46.634;14.318;2022-12-15T12:57:37;0.50;1.00
15217;DHT22;7711;46.634;14.318;2022-12-15T13:00:21;0.50;1.00
15217;DHT22;7711;46.634;14.318;2022-12-15T13:03:18;0.30;1.00
15217;DHT22;7711;46.634;14.318;2022-12-15T13:05:48;0.40;1.00
15217;DHT22;7711;46.634;14.318;2022-12-15T13:08:47;0.50;1.00
15217;DHT22;7711;46.634;14.318;2022-12-15T13:14:44;0.40;1.00
15217;DHT22;7711;46.634;14.318;2022-12-15T13:17:23;0.60;1.00
15217;DHT22;7711;46.634;14.318;2022-12-15T13:20:21;0.70;1.00
15217;DHT22;7711;46.634;14.318;2022-12-15T13:22:48;0.70;1.00
15217;DHT22;7711;46.634;14.318;2022-12-15T13:25:33;0.80;1.00
15217;DHT22;7711;46.634;14.318;2022-12-15T13:28:21;0.90;1.00
15217;DHT22;7711;46.634;14.318;2022-12-15T13:36:59;0.80;1.00
15217;DHT22;7711;46.634;14.318;2022-12-15T13:39:55;0.70;1.00
15217;DHT22;7711;46.634;14.318;2022-12-15T13:42:35;0.70;1.00
15217;DHT22;7711;46.634;14.318;2022-12-15T13:48:32;0.40;1.00
15217;DHT22;7711;46.634;14.318;2022-12-15T13:53:47;0.30;1.00
15217;DHT22;7711;46.634;14.318;2022-12-15T13:56:41;0.40;1.00
15217;DHT22;7711;46.634;14.318;2022-12-15T13:59:25;0.30;1.00
15217;DHT22;7711;46.634;14.318;2022-12-15T14:01:53;0.20;1.00
15217;DHT22;7711;46.634;14.318;2022-12-15T14:04:21;0.20;1.00
15217;DHT22;7711;46.634;14.318;2022-12-15T14:06:52;0.00;1.00
15217;DHT22;7711;46.634;14.318;2022-12-15T14:09:23;-0.10;1.00
15217;DHT22;7711;46.634;14.318;2022-12-15T14:11:51;-0.20;1.00
15217;DHT22;7711;46.634;14.318;2022-12-15T14:14:21;-0.40;1.00
15217;DHT22;7711;46.634;14.318;2022-12-15T14:16:55;-0.50;1.00
15217;DHT22;7711;46.634;14.318;2022-12-15T14:19:25;-0.60;1.00
15217;DHT22;7711;46.634;14.318;2022-12-15T14:21:57;-0.60;1.00
15217;DHT22;7711;46.634;14.318;2022-12-15T14:24:27;-0.70;1.00
15217;DHT22;7711;46.634;14.318;2022-12-15T14:26:55;-0.80;1.00
15217;DHT22;7711;46.634;14.318;2022-12-15T14:29:22;-0.90;1.00
15217;DHT22;7711;46.634;14.318;2022-12-15T14:31:53;-0.80;1.00
15217;DHT22;7711;46.634;14.318;2022-12-15T14:34:25;-0.90;1.00
15217;DHT22;7711;46.634;14.318;2022-12-15T14:36:56;-0.90;1.00
15217;DHT22;7711;46.634;14.318;2022-12-15T14:39:29;-0.90;1.00
15217;DHT22;7711;46.634;14.318;2022-12-15T14:41:58;-0.90;1.00
15217;DHT22;7711;46.634;14.318;2022-12-15T14:44:32;-0.90;1.00
15217;DHT22;7711;46.634;14.318;2022-12-15T14:47:01;-1.00;1.00
15217;DHT22;7711;46.634;14.318;2022-12-15T14:49:32;-1.00;1.00
15217;DHT22;7711;46.634;14.318;2022-12-15T14:52:05;-1.00;1.00
15217;DHT22;7711;46.634;14.318;2022-12-15T14:54:34;-1.00;1.00
15217;DHT22;7711;46.634;14.318;2022-12-15T14:57:11;-1.00;1.00
15217;DHT22;7711;46.634;14.318;2022-12-15T14:59:41;-1.10;1.00
15217;DHT22;7711;46.634;14.318;2022-12-15T15:02:16;-1.10;1.00
15217;DHT22;7711;46.634;14.318;2022-12-15T15:04:57;-1.10;1.00
15217;DHT22;7711;46.634;14.318;2022-12-15T15:07:31;-1.20;1.00
15217;DHT22;7711;46.634;14.318;2022-12-15T15:10:00;-1.20;1.00
15217;DHT22;7711;46.634;14.318;2022-12-15T15:12:40;-1.20;1.00
15217;DHT22;7711;46.634;14.318;2022-12-15T15:15:14;-1.30;1.00
15217;DHT22;7711;46.634;14.318;2022-12-15T15:17:44;-1.30;1.00
15217;DHT22;7711;46.634;14.318;2022-12-15T15:20:17;-1.40;1.00
15217;DHT22;7711;46.634;14.318;2022-12-15T15:23:02;-1.40;1.00
15217;DHT22;7711;46.634;14.318;2022-12-15T15:25:37;-1.40;1.00
15217;DHT22;7711;46.634;14.318;2022-12-15T15:28:15;-1.50;1.00
15217;DHT22;7711;46.634;14.318;2022-12-15T15:30:47;-1.50;1.00
15217;DHT22;7711;46.634;14.318;2022-12-15T15:33:15;-1.50;1.00
15217;DHT22;7711;46.634;14.318;2022-12-15T15:35:47;-1.50;1.00
15217;DHT22;7711;46.634;14.318;2022-12-15T15:38:23;-1.50;1.00
15217;DHT22;7711;46.634;14.318;2022-12-15T15:40:53;-1.60;1.00
15217;DHT22;7711;46.634;14.318;2022-12-15T15:43:20;-1.60;1.00
15217;DHT22;7711;46.634;14.318;2022-12-15T15:45:48;-1.60;1.00
15217;DHT22;7711;46.634;14.318;2022-12-15T15:48:22;-1.60;1.00
15217;DHT22;7711;46.634;14.318;2022-12-15T15:50:50;-1.60;1.00
15217;DHT22;7711;46.634;14.318;2022-12-15T15:53:20;-1.60;1.00
15217;DHT22;7711;46.634;14.318;2022-12-15T15:55:51;-1.60;1.00
15217;DHT22;7711;46.634;14.318;2022-12-15T15:58:19;-1.60;1.00
15217;DHT22;7711;46.634;14.318;2022-12-15T16:00:46;-1.60;1.00
15217;DHT22;7711;46.634;14.318;2022-12-15T16:03:13;-1.60;1.00
15217;DHT22;7711;46.634;14.318;2022-12-15T16:05:40;-1.60;1.00
15217;DHT22;7711;46.634;14.318;2022-12-15T16:08:12;-1.60;1.00
15217;DHT22;7711;46.634;14.318;2022-12-15T16:10:42;-1.60;1.00
15217;DHT22;7711;46.634;14.318;2022-12-15T16:13:14;-1.60;1.00
15217;DHT22;7711;46.634;14.318;2022-12-15T16:15:42;-1.60;1.00
15217;DHT22;7711;46.634;14.318;2022-12-15T16:18:10;-1.60;1.00
15217;DHT22;7711;46.634;14.318;2022-12-15T16:20:38;-1.60;1.00
15217;DHT22;7711;46.634;14.318;2022-12-15T16:23:10;-1.60;1.00
15217;DHT22;7711;46.634;14.318;2022-12-15T16:25:41;-1.70;1.00
15217;DHT22;7711;46.634;14.318;2022-12-15T16:28:13;-1.70;1.00
15217;DHT22;7711;46.634;14.318;2022-12-15T16:30:41;-1.70;1.00
15217;DHT22;7711;46.634;14.318;2022-12-15T16:33:09;-1.70;1.00
15217;DHT22;7711;46.634;14.318;2022-12-15T16:35:37;-1.70;1.00
15217;DHT22;7711;46.634;14.318;2022-12-15T16:38:04;-1.70;1.00
15217;DHT22;7711;46.634;14.318;2022-12-15T16:40:36;-1.80;1.00
15217;DHT22;7711;46.634;14.318;2022-12-15T16:43:12;-1.80;1.00
15217;DHT22;7711;46.634;14.318;2022-12-15T16:45:41;-1.80;1.00
15217;DHT22;7711;46.634;14.318;2022-12-15T16:48:10;-1.80;1.00
15217;DHT22;7711;46.634;14.318;2022-12-15T16:50:39;-1.80;1.00
15217;DHT22;7711;46.634;14.318;2022-12-15T16:53:13;-1.80;1.00
15217;DHT22;7711;46.634;14.318;2022-12-15T16:55:42;-1.80;1.00
15217;DHT22;7711;46.634;14.318;2022-12-15T16:58:12;-1.80;1.00
15217;DHT22;7711;46.634;14.318;2022-12-15T17:00:43;-1.70;1.00